createdAt,value
2022-11-18T00:04:39.214Z,6.10
2022-11-18T00:09:41.080Z,6.25
2022-11-18T00:14:42.938Z,7.45
2022-11-18T00:19:44.832Z,6.57
2022-11-18T00:24:46.723Z,7.13
2022-11-18T00:29:48.544Z,7.88
2022-11-18T00:34:50.377Z,7.40
2022-11-18T00:39:52.249Z,7.40
2022-11-18T00:44:54.238Z,7.43
2022-11-18T00:49:56.124Z,7.93
2022-11-18T00:54:58.075Z,7.13
2022-11-18T01:00:00.147Z,7.55
2022-11-18T01:05:02.044Z,7.78
2022-11-18T01:10:04.315Z,8.32
2022-11-18T01:15:06.605Z,8.18
2022-11-18T01:20:08.999Z,8.13
2022-11-18T01:25:11.045Z,7.30
2022-11-18T01:30:13.510Z,7.30
2022-11-18T01:35:15.686Z,8.25
2022-11-18T01:40:17.655Z,8.57
2022-11-18T01:45:29.030Z,7.90
2022-11-18T01:50:32.981Z,8.45
2022-11-18T01:55:41.838Z,8.10
2022-11-18T02:00:43.716Z,8.18
2022-11-18T02:05:48.283Z,7.97
2022-11-18T02:10:50.129Z,7.28
2022-11-18T02:16:13.995Z,7.45
2022-11-18T02:21:39.880Z,7.28
2022-11-18T02:27:21.997Z,7.20
2022-11-18T02:32:32.134Z,6.57
2022-11-18T02:37:46.894Z,6.78
2022-11-18T02:42:55.513Z,7.30
2022-11-18T02:48:05.692Z,6.53
2022-11-18T02:53:11.071Z,6.28
2022-11-18T02:58:16.622Z,7.00
2022-11-18T03:03:33.726Z,7.78
2022-11-18T03:08:43.232Z,7.38
2022-11-18T03:14:37.879Z,7.45
2022-11-18T03:19:51.507Z,6.32
2022-11-18T03:25:30.034Z,6.18
2022-11-18T03:30:34.536Z,6.05
2022-11-18T03:35:41.860Z,6.93
2022-11-18T03:40:53.129Z,5.78
2022-11-18T03:46:08.663Z,5.80
2022-11-18T03:51:15.304Z,5.93
2022-11-18T03:56:22.746Z,5.22
2022-11-18T04:01:31.780Z,5.45
2022-11-18T04:06:48.352Z,5.80
2022-11-18T04:12:03.072Z,5.80
2022-11-18T04:17:17.055Z,6.07
2022-11-18T04:22:19.422Z,6.05
2022-11-18T04:27:21.292Z,5.97
2022-11-18T04:32:23.271Z,6.38
2022-11-18T04:37:25.669Z,5.97
2022-11-18T04:42:28.274Z,7.22
2022-11-18T04:47:30.354Z,6.65
2022-11-18T04:52:32.163Z,7.57
2022-11-18T04:57:33.937Z,7.55
2022-11-18T05:02:35.973Z,7.75
2022-11-18T05:07:37.807Z,7.18
2022-11-18T05:12:49.011Z,8.10
2022-11-18T05:17:52.132Z,8.75
2022-11-18T05:22:54.066Z,7.72
2022-11-18T05:27:56.177Z,7.72
2022-11-18T05:32:58.076Z,6.97
2022-11-18T05:38:01.755Z,8.77
2022-11-18T05:43:12.743Z,8.50
2022-11-18T05:48:14.754Z,7.65
2022-11-18T05:53:19.075Z,9.23
2022-11-18T05:58:21.353Z,8.70
2022-11-18T06:03:30.917Z,9.63
2022-11-18T06:08:42.272Z,9.68
2022-11-18T06:14:03.771Z,8.60
2022-11-18T06:19:07.394Z,8.10
2022-11-18T06:24:10.152Z,8.38
2022-11-18T06:29:15.151Z,7.20
2022-11-18T06:34:17.686Z,8.10
2022-11-18T06:39:20.027Z,8.70
2022-11-18T06:44:22.537Z,8.57
2022-11-18T06:49:26.008Z,9.13
2022-11-18T06:54:27.864Z,8.98
2022-11-18T06:59:29.728Z,9.02
2022-11-18T07:04:33.695Z,8.18
2022-11-18T07:09:36.864Z,8.48
2022-11-18T07:14:38.753Z,8.10
2022-11-18T07:19:40.690Z,7.70
2022-11-18T07:24:43.426Z,7.22
2022-11-18T07:29:45.148Z,7.10
2022-11-18T07:34:46.983Z,7.22
2022-11-18T07:39:48.730Z,7.40
2022-11-18T07:44:50.527Z,6.47
2022-11-18T07:49:52.336Z,6.50
2022-11-18T07:54:54.372Z,6.30
2022-11-18T07:59:56.261Z,5.95
2022-11-18T08:04:58.084Z,6.00
2022-11-18T08:09:59.864Z,5.05
2022-11-18T08:15:01.684Z,5.28
2022-11-18T08:20:03.814Z,6.13
2022-11-18T08:25:05.972Z,5.93
2022-11-18T08:30:08.660Z,5.68
2022-11-18T08:35:11.558Z,5.50
2022-11-18T08:40:13.952Z,6.00
2022-11-18T08:45:15.908Z,6.43
2022-11-18T08:50:17.914Z,6.15
2022-11-18T08:55:19.748Z,5.72
2022-11-18T09:00:21.614Z,5.97
2022-11-18T09:05:23.473Z,6.05
2022-11-18T09:10:25.317Z,5.38
2022-11-18T09:15:29.698Z,6.20
2022-11-18T09:20:31.541Z,7.70
2022-11-18T09:25:33.409Z,6.82
2022-11-18T09:30:35.238Z,8.25
2022-11-18T09:35:42.415Z,7.65
2022-11-18T09:41:12.784Z,9.00
2022-11-18T09:46:33.964Z,9.52
2022-11-18T09:51:49.774Z,10.40
2022-11-18T09:56:54.194Z,10.25
2022-11-18T10:02:03.311Z,9.50
2022-11-18T10:07:19.279Z,9.88
2022-11-18T10:12:37.311Z,9.30
2022-11-18T10:17:57.347Z,9.82
2022-11-18T10:23:15.879Z,10.10
2022-11-18T10:28:30.911Z,10.38
2022-11-18T10:33:33.420Z,10.57
2022-11-18T10:38:35.317Z,10.40
2022-11-18T10:43:52.184Z,11.32
2022-11-18T10:49:09.150Z,10.10
2022-11-18T10:54:19.365Z,9.35
2022-11-18T10:59:35.089Z,8.73
2022-11-18T11:04:38.567Z,7.60
2022-11-18T11:09:40.556Z,8.23
2022-11-18T11:14:57.644Z,7.00
2022-11-18T11:20:20.893Z,5.82
2022-11-18T11:31:20.369Z,6.35
2022-11-18T11:36:22.256Z,6.95
2022-11-18T11:41:24.817Z,8.10
2022-11-18T11:47:14.516Z,7.43
2022-11-18T11:52:28.204Z,8.23
2022-11-18T11:58:01.382Z,8.23
2022-11-18T12:03:14.428Z,9.38
2022-11-18T12:08:31.127Z,8.20
2022-11-18T12:13:53.060Z,8.80
2022-11-18T12:19:18.157Z,9.18
2022-11-18T12:24:23.138Z,10.10
2022-11-18T12:29:27.935Z,9.80
2022-11-18T12:34:37.444Z,10.38
2022-11-18T12:39:41.947Z,9.70
2022-11-18T12:44:46.386Z,10.85
2022-11-18T12:49:48.197Z,11.73
2022-11-18T12:54:50.907Z,11.20
2022-11-18T12:59:52.775Z,12.90
2022-11-18T13:05:11.095Z,13.60
2022-11-18T13:10:23.737Z,11.43
2022-11-18T13:15:44.613Z,14.35
2022-11-18T13:21:30.887Z,13.82
2022-11-18T13:26:34.675Z,13.57
2022-11-18T13:31:48.739Z,13.80
2022-11-18T13:36:52.939Z,14.13
2022-11-18T13:42:04.308Z,13.65
2022-11-18T13:47:06.296Z,11.77
2022-11-18T13:52:18.989Z,12.60
2022-11-18T13:57:23.559Z,11.80
2022-11-18T14:02:25.449Z,12.65
2022-11-18T14:07:35.545Z,12.13
2022-11-18T14:12:40.788Z,12.52
2022-11-18T14:18:02.022Z,12.18
2022-11-18T14:23:05.676Z,11.95
2022-11-18T14:28:27.031Z,12.18
2022-11-18T14:33:30.116Z,11.95
2022-11-18T14:44:01.628Z,13.93
2022-11-18T14:49:06.554Z,14.95
2022-11-18T14:54:14.051Z,15.32
2022-11-18T14:59:19.092Z,15.23
2022-11-18T15:04:22.161Z,15.05
2022-11-18T15:09:24.865Z,14.10
2022-11-18T15:14:26.614Z,16.25
2022-11-18T15:19:31.988Z,15.88
2022-11-18T15:24:34.026Z,16.63
2022-11-18T15:29:35.905Z,16.17
2022-11-18T15:34:37.773Z,15.50
2022-11-18T15:39:39.894Z,15.95
2022-11-18T15:44:41.915Z,15.45
2022-11-18T15:49:45.433Z,15.85
2022-11-18T15:54:48.518Z,14.25
2022-11-18T15:59:50.333Z,15.23
2022-11-18T16:04:54.769Z,15.90
2022-11-18T16:10:15.074Z,15.45
2022-11-18T16:15:36.386Z,14.65
2022-11-18T16:20:38.209Z,15.15
2022-11-18T16:25:44.649Z,15.05
2022-11-18T16:31:09.115Z,16.60
2022-11-18T16:36:10.912Z,14.63
2022-11-18T16:41:31.285Z,16.17
2022-11-18T16:46:35.095Z,15.25
2022-11-18T16:51:37.008Z,16.27
2022-11-18T16:56:40.594Z,15.98
2022-11-18T17:01:42.917Z,14.07
2022-11-18T17:06:48.564Z,14.98
2022-11-18T17:11:52.347Z,14.52
2022-11-18T17:16:54.282Z,12.13
2022-11-18T17:21:56.656Z,14.95
2022-11-18T17:26:58.546Z,12.95
2022-11-18T17:32:01.527Z,12.30
2022-11-18T17:37:06.983Z,12.70
2022-11-18T17:42:15.106Z,10.57
2022-11-18T17:47:18.176Z,11.20
2022-11-18T17:52:20.074Z,10.38
2022-11-18T17:57:21.999Z,11.38
2022-11-18T18:02:24.026Z,9.60
2022-11-18T18:07:25.944Z,10.10
2022-11-18T18:12:46.202Z,10.43
2022-11-18T18:17:48.620Z,10.45
2022-11-18T18:22:50.449Z,10.02
2022-11-18T18:27:52.977Z,9.82
2022-11-18T18:32:54.807Z,9.63
2022-11-18T18:37:56.719Z,9.02
2022-11-18T18:42:58.578Z,8.27
2022-11-18T18:48:03.993Z,8.45
2022-11-18T18:53:05.908Z,7.93
2022-11-18T18:58:08.717Z,7.30
2022-11-18T19:03:10.795Z,7.90
2022-11-18T19:08:12.842Z,7.70
2022-11-18T19:13:14.742Z,7.00
2022-11-18T19:18:16.706Z,6.93
2022-11-18T19:23:19.626Z,5.32
2022-11-18T19:28:21.563Z,5.80
2022-11-18T19:33:23.557Z,5.53
2022-11-18T19:38:25.333Z,5.47
2022-11-18T19:43:27.442Z,5.00
2022-11-18T19:48:29.832Z,5.32
2022-11-18T19:53:32.091Z,5.00
2022-11-18T19:58:36.458Z,5.80
2022-11-18T20:03:38.558Z,5.55
2022-11-18T20:08:41.184Z,5.82
2022-11-18T20:13:44.499Z,5.00
2022-11-18T20:18:48.842Z,5.30
2022-11-18T20:23:58.698Z,4.38
2022-11-18T20:29:00.714Z,5.60
2022-11-18T20:34:03.046Z,4.32
2022-11-18T20:39:07.685Z,4.45
2022-11-18T20:44:09.575Z,5.15
2022-11-18T20:49:11.612Z,4.20
2022-11-18T20:54:13.718Z,5.70
2022-11-18T20:59:15.718Z,5.18
2022-11-18T21:04:17.821Z,4.88
2022-11-18T21:09:19.932Z,4.53
2022-11-18T21:14:25.536Z,4.78
2022-11-18T21:19:28.869Z,5.20
2022-11-18T21:24:33.058Z,4.65
2022-11-18T21:29:34.981Z,5.25
2022-11-18T21:34:36.873Z,5.63
2022-11-18T21:39:41.428Z,5.80
2022-11-18T21:44:43.248Z,6.05
2022-11-18T21:49:45.281Z,5.80
2022-11-18T21:54:47.124Z,5.25
2022-11-18T21:59:49.126Z,5.18
2022-11-18T22:04:53.831Z,5.55
2022-11-18T22:09:55.677Z,5.13
2022-11-18T22:14:57.466Z,4.68
2022-11-18T22:19:59.203Z,5.47
2022-11-18T22:25:01.012Z,5.43
2022-11-18T22:30:02.793Z,4.93
2022-11-18T22:35:04.895Z,5.22
2022-11-18T22:40:07.657Z,6.28
2022-11-18T22:45:09.667Z,5.00
2022-11-18T22:50:11.484Z,5.70
2022-11-18T22:55:13.262Z,5.13
2022-11-18T23:00:16.400Z,5.38
2022-11-18T23:05:18.400Z,5.95
2022-11-18T23:10:20.249Z,5.72
2022-11-18T23:15:22.149Z,6.00
2022-11-18T23:20:23.975Z,6.15
2022-11-18T23:25:25.795Z,6.15
2022-11-18T23:30:27.807Z,5.35
2022-11-18T23:35:29.709Z,5.97
2022-11-18T23:40:31.797Z,6.40
2022-11-18T23:45:33.644Z,5.68
2022-11-18T23:50:39.315Z,6.40
2022-11-18T23:55:41.393Z,5.45
